createdAt,value
2023-07-25T00:00:36.052Z,41
2023-07-25T00:02:32.974Z,40
2023-07-25T00:04:30.123Z,37
2023-07-25T00:06:27.235Z,37
2023-07-25T00:08:24.232Z,40
2023-07-25T00:10:21.177Z,40
2023-07-25T00:12:18.216Z,38
2023-07-25T00:14:15.142Z,40
2023-07-25T00:16:12.218Z,42
2023-07-25T00:18:09.316Z,40
2023-07-25T00:20:06.183Z,41
2023-07-25T00:22:03.246Z,38
2023-07-25T00:24:00.228Z,43
2023-07-25T00:25:57.539Z,40
2023-07-25T00:27:54.618Z,39
2023-07-25T00:29:51.639Z,38
2023-07-25T00:31:48.723Z,40
2023-07-25T00:33:45.648Z,46
2023-07-25T00:35:42.644Z,37
2023-07-25T00:37:39.628Z,39
2023-07-25T00:39:36.582Z,36
2023-07-25T00:41:33.765Z,40
2023-07-25T00:43:31.076Z,34
2023-07-25T00:45:27.983Z,43
2023-07-25T00:47:25.216Z,40
2023-07-25T00:49:22.509Z,39
2023-07-25T00:51:19.449Z,34
2023-07-25T00:53:16.546Z,42
2023-07-25T00:55:13.594Z,38
2023-07-25T00:57:10.571Z,38
2023-07-25T00:59:07.625Z,40
2023-07-25T01:01:04.585Z,43
2023-07-25T01:03:02.883Z,40
2023-07-25T01:05:00.248Z,42
2023-07-25T01:06:57.286Z,41
2023-07-25T01:08:54.488Z,48
2023-07-25T01:10:51.453Z,40
2023-07-25T01:12:48.521Z,40
2023-07-25T01:14:45.477Z,39
2023-07-25T01:16:42.539Z,33
2023-07-25T01:18:39.651Z,41
2023-07-25T01:20:36.735Z,37
2023-07-25T01:22:33.763Z,36
2023-07-25T01:24:30.771Z,34
2023-07-25T01:26:27.791Z,37
2023-07-25T01:28:24.767Z,39
2023-07-25T01:30:21.763Z,36
2023-07-25T01:32:18.982Z,38
2023-07-25T01:34:16.442Z,36
2023-07-25T01:36:13.559Z,41
2023-07-25T01:38:10.572Z,37
2023-07-25T01:40:07.547Z,37
2023-07-25T01:42:04.508Z,37
2023-07-25T01:44:01.584Z,34
2023-07-25T01:45:58.567Z,37
2023-07-25T01:47:55.615Z,36
2023-07-25T01:49:52.760Z,37
2023-07-25T01:51:49.756Z,35
2023-07-25T01:53:46.645Z,38
2023-07-25T01:55:43.645Z,38
2023-07-25T01:57:40.533Z,38
2023-07-25T01:59:37.398Z,36
2023-07-25T02:01:34.848Z,39
2023-07-25T02:03:32.383Z,37
2023-07-25T02:05:29.573Z,34
2023-07-25T02:07:27.005Z,30
2023-07-25T02:09:24.181Z,37
2023-07-25T02:11:21.168Z,38
2023-07-25T02:13:18.164Z,35
2023-07-25T02:15:15.155Z,30
2023-07-25T02:17:12.176Z,36
2023-07-25T02:19:09.584Z,38
2023-07-25T02:21:06.704Z,35
2023-07-25T02:23:03.739Z,35
2023-07-25T02:25:00.773Z,36
2023-07-25T02:26:57.772Z,33
2023-07-25T02:28:54.768Z,34
2023-07-25T02:30:51.716Z,38
2023-07-25T02:32:49.108Z,37
2023-07-25T02:34:46.235Z,37
2023-07-25T02:36:43.462Z,35
2023-07-25T02:38:40.450Z,40
2023-07-25T02:40:37.371Z,38
2023-07-25T02:42:34.331Z,38
2023-07-25T02:44:31.269Z,39
2023-07-25T02:46:28.236Z,38
2023-07-25T02:48:25.254Z,42
2023-07-25T02:50:22.378Z,40
2023-07-25T02:52:19.403Z,38
2023-07-25T02:54:16.329Z,40
2023-07-25T02:56:13.329Z,38
2023-07-25T02:58:10.322Z,37
2023-07-25T03:00:07.170Z,42
2023-07-25T03:02:04.557Z,39
2023-07-25T03:04:01.931Z,43
2023-07-25T03:05:59.035Z,40
2023-07-25T03:07:56.153Z,45
2023-07-25T03:09:53.065Z,42
2023-07-25T03:11:50.036Z,45
2023-07-25T03:13:46.928Z,47
2023-07-25T03:15:43.876Z,50
2023-07-25T03:17:41.598Z,48
2023-07-25T03:19:39.555Z,59
2023-07-25T03:21:36.724Z,52
2023-07-25T03:23:33.894Z,52
2023-07-25T03:25:30.797Z,58
2023-07-25T03:27:27.726Z,69
2023-07-25T03:29:24.607Z,66
2023-07-25T03:31:21.656Z,62
2023-07-25T03:33:18.625Z,73
2023-07-25T03:35:15.643Z,75
2023-07-25T03:37:12.611Z,82
2023-07-25T03:39:09.676Z,85
2023-07-25T03:41:06.616Z,91
2023-07-25T03:43:03.757Z,95
2023-07-25T03:45:00.709Z,101
2023-07-25T03:46:57.658Z,107
2023-07-25T03:48:54.844Z,115
2023-07-25T03:50:51.885Z,121
2023-07-25T03:52:49.054Z,125
2023-07-25T03:54:46.180Z,129
2023-07-25T03:56:43.143Z,136
2023-07-25T03:58:40.067Z,147
2023-07-25T04:00:37.052Z,154
2023-07-25T04:02:34.335Z,164
2023-07-25T04:04:44.813Z,168
2023-07-25T04:06:41.966Z,183
2023-07-25T04:08:39.161Z,188
2023-07-25T04:10:36.306Z,194
2023-07-25T04:12:33.348Z,196
2023-07-25T04:14:30.258Z,203
2023-07-25T04:16:27.329Z,212
2023-07-25T04:18:24.461Z,221
2023-07-25T04:20:21.523Z,227
2023-07-25T04:22:18.494Z,241
2023-07-25T04:24:15.568Z,241
2023-07-25T04:26:12.832Z,253
2023-07-25T04:28:09.695Z,263
2023-07-25T04:30:06.729Z,269
2023-07-25T04:32:03.706Z,283
2023-07-25T04:34:00.832Z,288
2023-07-25T04:35:58.106Z,289
2023-07-25T04:37:55.416Z,293
2023-07-25T04:39:52.404Z,302
2023-07-25T04:41:49.383Z,305
2023-07-25T04:43:46.356Z,311
2023-07-25T04:45:43.924Z,314
2023-07-25T04:47:41.304Z,324
2023-07-25T04:49:38.624Z,333
2023-07-25T04:51:35.815Z,347
2023-07-25T04:53:32.963Z,352
2023-07-25T04:55:29.900Z,364
2023-07-25T04:57:27.094Z,376
2023-07-25T04:59:24.197Z,382
2023-07-25T05:01:21.239Z,389
2023-07-25T05:03:18.598Z,397
2023-07-25T05:05:15.713Z,407
2023-07-25T05:07:12.677Z,405
2023-07-25T05:09:09.728Z,408
2023-07-25T05:11:06.807Z,413
2023-07-25T05:13:03.915Z,413
2023-07-25T05:15:00.797Z,416
2023-07-25T05:16:58.005Z,416
2023-07-25T05:18:55.195Z,420
2023-07-25T05:20:52.243Z,423
2023-07-25T05:22:49.288Z,431
2023-07-25T05:24:46.292Z,435
2023-07-25T05:26:43.383Z,434
2023-07-25T05:28:40.518Z,436
2023-07-25T05:30:37.511Z,445
2023-07-25T05:32:37.243Z,457
2023-07-25T05:34:34.733Z,467
2023-07-25T05:36:31.764Z,473
2023-07-25T05:38:28.811Z,472
2023-07-25T05:40:25.902Z,462
2023-07-25T05:42:22.836Z,467
2023-07-25T05:44:19.855Z,465
2023-07-25T05:46:16.846Z,468
2023-07-25T05:48:13.837Z,467
2023-07-25T05:50:10.811Z,463
2023-07-25T05:52:07.728Z,456
2023-07-25T05:54:04.800Z,448
2023-07-25T05:56:01.747Z,433
2023-07-25T05:57:58.747Z,434
2023-07-25T05:59:55.801Z,433
2023-07-25T06:01:52.767Z,434
2023-07-25T06:03:49.743Z,436
2023-07-25T06:05:46.811Z,451
2023-07-25T06:07:43.899Z,443
2023-07-25T06:09:40.837Z,441
2023-07-25T06:11:37.832Z,450
2023-07-25T06:13:35.020Z,454
2023-07-25T06:15:32.189Z,457
2023-07-25T06:17:29.136Z,457
2023-07-25T06:19:26.268Z,465
2023-07-25T06:21:23.158Z,477
2023-07-25T06:23:20.349Z,484
2023-07-25T06:25:17.448Z,486
2023-07-25T06:27:14.590Z,492
2023-07-25T06:29:12.178Z,488
2023-07-25T06:31:09.470Z,486
2023-07-25T06:33:06.841Z,479
2023-07-25T06:35:03.878Z,498
2023-07-25T06:37:00.862Z,510
2023-07-25T06:38:57.798Z,516
2023-07-25T06:40:54.781Z,517
2023-07-25T06:42:51.762Z,527
2023-07-25T06:44:48.744Z,540
2023-07-25T06:46:45.935Z,538
2023-07-25T06:48:43.102Z,542
2023-07-25T06:50:40.035Z,544
2023-07-25T06:52:37.134Z,556
2023-07-25T06:54:34.213Z,555
2023-07-25T06:56:31.174Z,554
2023-07-25T06:58:28.021Z,551
2023-07-25T07:00:25.075Z,557
2023-07-25T07:02:22.475Z,557
2023-07-25T07:04:19.824Z,547
2023-07-25T07:06:17.004Z,533
2023-07-25T07:08:13.946Z,541
2023-07-25T07:10:11.091Z,551
2023-07-25T07:12:08.082Z,531
2023-07-25T07:14:05.026Z,528
2023-07-25T07:16:03.977Z,525
2023-07-25T07:18:02.376Z,532
2023-07-25T07:19:59.450Z,536
2023-07-25T07:21:56.481Z,537
2023-07-25T07:23:53.561Z,532
2023-07-25T07:25:50.667Z,537
2023-07-25T07:27:47.667Z,542
2023-07-25T07:29:44.757Z,544
2023-07-25T07:31:41.671Z,537
2023-07-25T07:33:38.753Z,532
2023-07-25T07:35:35.731Z,525
2023-07-25T07:37:34.470Z,521
2023-07-25T07:39:31.773Z,530
2023-07-25T07:41:28.913Z,526
2023-07-25T07:43:26.006Z,532
2023-07-25T07:45:22.952Z,533
2023-07-25T07:47:20.075Z,541
2023-07-25T07:49:17.291Z,534
2023-07-25T07:51:14.292Z,545
2023-07-25T07:53:26.228Z,552
2023-07-25T07:55:23.173Z,558
2023-07-25T07:57:20.214Z,573
2023-07-25T07:59:17.362Z,568
2023-07-25T08:01:14.913Z,571
2023-07-25T08:03:12.047Z,564
2023-07-25T08:05:09.154Z,568
2023-07-25T08:07:06.166Z,579
2023-07-25T08:09:03.346Z,578
2023-07-25T08:11:00.341Z,590
2023-07-25T08:12:57.535Z,584
2023-07-25T08:14:54.679Z,585
2023-07-25T08:16:52.199Z,578
2023-07-25T08:18:49.314Z,548
2023-07-25T08:20:46.304Z,547
2023-07-25T08:22:43.345Z,545
2023-07-25T08:24:40.427Z,545
2023-07-25T08:26:37.703Z,547
2023-07-25T08:28:34.773Z,557
2023-07-25T08:30:31.799Z,562
2023-07-25T08:32:29.115Z,560
2023-07-25T08:34:26.325Z,551
2023-07-25T08:36:23.566Z,545
2023-07-25T08:38:20.438Z,549
2023-07-25T08:40:17.330Z,586
2023-07-25T08:42:14.343Z,549
2023-07-25T08:44:11.513Z,554
2023-07-25T08:46:08.553Z,557
2023-07-25T08:48:05.693Z,555
2023-07-25T08:50:02.835Z,567
2023-07-25T08:52:00.099Z,556
2023-07-25T08:53:57.144Z,587
2023-07-25T08:55:54.197Z,590
2023-07-25T08:57:51.195Z,545
2023-07-25T08:59:48.226Z,518
2023-07-25T09:01:45.451Z,522
2023-07-25T09:03:42.791Z,518
2023-07-25T09:05:40.008Z,513
2023-07-25T09:07:37.177Z,511
2023-07-25T09:09:34.164Z,521
2023-07-25T09:11:31.526Z,521
2023-07-25T09:13:28.709Z,531
2023-07-25T09:15:25.681Z,537
2023-07-25T09:17:22.660Z,610
2023-07-25T09:19:19.754Z,658
2023-07-25T09:21:16.803Z,637
2023-07-25T09:23:13.981Z,655
2023-07-25T09:25:11.008Z,677
2023-07-25T09:27:08.169Z,665
2023-07-25T09:29:05.219Z,648
2023-07-25T09:31:02.078Z,650
2023-07-25T09:32:59.943Z,652
2023-07-25T09:34:56.857Z,668
2023-07-25T09:36:53.981Z,671
2023-07-25T09:38:51.065Z,660
2023-07-25T09:40:48.191Z,662
2023-07-25T09:42:45.261Z,673
2023-07-25T09:44:42.095Z,679
2023-07-25T09:46:39.072Z,591
2023-07-25T09:48:36.045Z,581
2023-07-25T09:50:33.186Z,571
2023-07-25T09:52:30.228Z,603
2023-07-25T09:54:27.349Z,563
2023-07-25T09:56:24.348Z,543
2023-07-25T09:58:21.200Z,505
2023-07-25T10:00:36.300Z,457
2023-07-25T10:02:33.518Z,434
2023-07-25T10:04:30.997Z,428
2023-07-25T10:06:28.039Z,429
2023-07-25T10:08:25.267Z,434
2023-07-25T10:10:22.437Z,447
2023-07-25T10:12:19.485Z,452
2023-07-25T10:14:16.410Z,458
2023-07-25T10:16:13.476Z,469
2023-07-25T10:18:10.508Z,476
2023-07-25T10:20:09.041Z,487
2023-07-25T10:22:07.155Z,495
2023-07-25T10:24:04.244Z,510
2023-07-25T10:26:01.403Z,524
2023-07-25T10:27:58.454Z,545
2023-07-25T10:29:55.538Z,572
2023-07-25T10:31:52.688Z,589
2023-07-25T10:33:49.777Z,593
2023-07-25T10:35:46.872Z,591
2023-07-25T10:37:43.801Z,597
2023-07-25T10:39:40.880Z,581
2023-07-25T10:41:38.159Z,536
2023-07-25T10:43:35.251Z,490
2023-07-25T10:45:32.929Z,479
2023-07-25T10:47:30.018Z,473
2023-07-25T10:49:27.152Z,477
2023-07-25T10:51:24.099Z,476
2023-07-25T10:53:21.864Z,474
2023-07-25T10:55:18.821Z,477
2023-07-25T10:57:16.116Z,479
2023-07-25T10:59:13.290Z,492
2023-07-25T11:01:10.445Z,502
2023-07-25T11:03:07.604Z,497
2023-07-25T11:05:04.988Z,506
2023-07-25T11:07:01.992Z,509
2023-07-25T11:08:59.074Z,507
2023-07-25T11:10:56.212Z,502
2023-07-25T11:12:53.224Z,504
2023-07-25T11:14:50.184Z,497
2023-07-25T11:16:57.912Z,494
2023-07-25T11:18:55.125Z,495
2023-07-25T11:20:52.294Z,495
2023-07-25T11:22:49.232Z,498
2023-07-25T11:24:46.291Z,501
2023-07-25T11:26:43.352Z,501
2023-07-25T11:28:40.572Z,507
2023-07-25T11:30:37.787Z,514
2023-07-25T11:32:34.986Z,517
2023-07-25T11:34:32.316Z,524
2023-07-25T11:36:29.310Z,528
2023-07-25T11:38:26.256Z,534
2023-07-25T11:40:23.215Z,538
2023-07-25T11:42:20.416Z,544
2023-07-25T11:44:17.604Z,547
2023-07-25T11:46:14.582Z,553
2023-07-25T11:48:11.938Z,557
2023-07-25T11:50:21.279Z,563
2023-07-25T11:52:22.103Z,568
2023-07-25T11:54:18.993Z,568
2023-07-25T11:56:16.037Z,576
2023-07-25T11:58:15.290Z,583
2023-07-25T12:00:14.622Z,591
2023-07-25T12:02:11.864Z,598
2023-07-25T12:04:09.104Z,617
2023-07-25T12:06:06.124Z,616
2023-07-25T12:08:04.622Z,620
2023-07-25T12:10:01.859Z,619
2023-07-25T12:11:58.782Z,616
2023-07-25T12:13:55.863Z,626
2023-07-25T12:15:52.983Z,635
2023-07-25T12:17:50.103Z,692
2023-07-25T12:19:47.116Z,670
2023-07-25T12:21:44.162Z,665
2023-07-25T12:23:41.203Z,645
2023-07-25T12:25:38.063Z,596
2023-07-25T12:27:35.031Z,545
2023-07-25T12:29:31.966Z,506
2023-07-25T12:31:29.294Z,480
2023-07-25T12:33:26.380Z,461
2023-07-25T12:35:23.565Z,443
2023-07-25T12:37:20.556Z,439
2023-07-25T12:39:17.548Z,440
2023-07-25T12:41:14.538Z,435
2023-07-25T12:43:11.489Z,461
2023-07-25T12:45:11.000Z,451
2023-07-25T12:47:08.594Z,466
2023-07-25T12:49:05.620Z,479
2023-07-25T12:51:02.734Z,502
2023-07-25T12:53:00.501Z,532
2023-07-25T12:54:57.436Z,585
2023-07-25T12:56:54.688Z,714
2023-07-25T12:58:51.782Z,708
2023-07-25T13:00:48.802Z,638
2023-07-25T13:02:46.233Z,697
2023-07-25T13:04:43.758Z,668
2023-07-25T13:06:40.835Z,723
2023-07-25T13:08:38.065Z,685
2023-07-25T13:10:35.117Z,636
2023-07-25T13:12:32.162Z,699
2023-07-25T13:14:29.360Z,610
2023-07-25T13:16:27.925Z,610
2023-07-25T13:18:26.102Z,635
2023-07-25T13:20:23.151Z,644
2023-07-25T13:22:20.144Z,570
2023-07-25T13:24:17.276Z,546
2023-07-25T13:26:14.524Z,536
2023-07-25T13:28:11.582Z,543
2023-07-25T13:30:08.686Z,585
2023-07-25T13:32:05.797Z,584
2023-07-25T13:34:03.243Z,591
2023-07-25T13:36:00.221Z,678
2023-07-25T13:37:57.156Z,684
2023-07-25T13:39:54.195Z,680
2023-07-25T13:41:51.301Z,678
2023-07-25T13:43:48.339Z,676
2023-07-25T13:45:52.408Z,688
2023-07-25T13:47:50.195Z,683
2023-07-25T13:49:47.566Z,674
2023-07-25T13:51:44.602Z,676
2023-07-25T13:53:41.645Z,676
2023-07-25T13:55:38.588Z,673
2023-07-25T13:57:38.468Z,673
2023-07-25T13:59:52.025Z,670
2023-07-25T14:01:48.936Z,657
2023-07-25T14:03:45.990Z,593
2023-07-25T14:05:43.198Z,595
2023-07-25T14:07:40.150Z,653
2023-07-25T14:09:37.860Z,588
2023-07-25T14:11:35.012Z,573
2023-07-25T14:13:32.114Z,554
2023-07-25T14:15:29.458Z,544
2023-07-25T14:17:26.790Z,548
2023-07-25T14:19:24.028Z,545
2023-07-25T14:21:21.044Z,552
2023-07-25T14:23:17.922Z,562
2023-07-25T14:25:14.787Z,577
2023-07-25T14:27:11.662Z,654
2023-07-25T14:29:08.605Z,567
2023-07-25T14:31:05.642Z,579
2023-07-25T14:33:03.025Z,576
2023-07-25T14:35:00.151Z,585
2023-07-25T14:36:57.346Z,650
2023-07-25T14:39:17.328Z,622
2023-07-25T14:41:14.221Z,622
2023-07-25T14:43:11.209Z,631
2023-07-25T14:45:08.252Z,653
2023-07-25T14:47:05.263Z,584
2023-07-25T14:49:02.952Z,587
2023-07-25T14:50:59.972Z,662
2023-07-25T14:52:57.003Z,569
2023-07-25T14:54:53.943Z,661
2023-07-25T14:56:51.033Z,586
2023-07-25T14:58:48.174Z,566
2023-07-25T15:00:45.256Z,658
2023-07-25T15:02:42.620Z,673
2023-07-25T15:04:39.821Z,670
2023-07-25T15:06:36.886Z,670
2023-07-25T15:08:34.010Z,681
2023-07-25T15:10:34.071Z,691
2023-07-25T15:12:31.171Z,575
2023-07-25T15:14:28.303Z,667
2023-07-25T15:16:25.330Z,667
2023-07-25T15:18:22.572Z,668
2023-07-25T15:20:19.436Z,662
2023-07-25T15:22:16.328Z,661
2023-07-25T15:24:13.483Z,665
2023-07-25T15:26:10.576Z,665
2023-07-25T15:28:07.730Z,661
2023-07-25T15:30:04.767Z,660
2023-07-25T15:32:01.833Z,658
2023-07-25T15:33:58.820Z,659
2023-07-25T15:35:55.853Z,657
2023-07-25T15:37:52.934Z,653
2023-07-25T15:39:50.036Z,657
2023-07-25T15:41:46.928Z,642
2023-07-25T15:43:43.921Z,642
2023-07-25T15:45:40.913Z,636
2023-07-25T15:47:38.083Z,529
2023-07-25T15:49:35.223Z,509
2023-07-25T15:51:32.529Z,566
2023-07-25T15:53:29.764Z,567
2023-07-25T15:55:26.914Z,604
2023-07-25T15:57:23.792Z,608
2023-07-25T15:59:20.780Z,613
2023-07-25T16:01:17.903Z,622
2023-07-25T16:03:15.144Z,618
2023-07-25T16:05:12.215Z,624
2023-07-25T16:07:09.164Z,626
2023-07-25T16:09:06.344Z,619
2023-07-25T16:11:03.579Z,612
2023-07-25T16:13:02.781Z,609
2023-07-25T16:15:00.375Z,603
2023-07-25T16:16:57.390Z,604
2023-07-25T16:18:54.447Z,602
2023-07-25T16:20:51.317Z,603
2023-07-25T16:22:48.175Z,599
2023-07-25T16:24:45.311Z,581
2023-07-25T16:26:42.321Z,596
2023-07-25T16:28:39.257Z,594
2023-07-25T16:30:36.160Z,590
2023-07-25T16:33:01.428Z,588
2023-07-25T16:34:58.447Z,531
2023-07-25T16:36:55.384Z,520
2023-07-25T16:38:52.273Z,576
2023-07-25T16:40:49.350Z,573
2023-07-25T16:42:46.365Z,569
2023-07-25T16:44:43.559Z,567
2023-07-25T16:46:40.467Z,564
2023-07-25T16:48:37.493Z,550
2023-07-25T16:50:34.440Z,539
2023-07-25T16:52:31.377Z,525
2023-07-25T16:54:28.315Z,510
2023-07-25T16:56:25.400Z,542
2023-07-25T16:58:22.374Z,510
2023-07-25T17:00:19.283Z,511
2023-07-25T17:02:16.186Z,502
2023-07-25T17:04:13.700Z,490
2023-07-25T17:06:10.849Z,483
2023-07-25T17:08:07.779Z,515
2023-07-25T17:10:04.674Z,483
2023-07-25T17:12:04.052Z,480
2023-07-25T17:14:01.380Z,478
2023-07-25T17:15:58.385Z,470
2023-07-25T17:17:55.588Z,468
2023-07-25T17:19:52.602Z,499
2023-07-25T17:21:49.583Z,468
2023-07-25T17:23:46.753Z,469
2023-07-25T17:25:43.994Z,470
2023-07-25T17:27:41.019Z,473
2023-07-25T17:29:38.187Z,455
2023-07-25T17:31:35.569Z,445
2023-07-25T17:33:32.729Z,442
2023-07-25T17:35:37.096Z,445
2023-07-25T17:37:34.554Z,442
2023-07-25T17:39:31.875Z,441
2023-07-25T17:41:28.968Z,437
2023-07-25T17:43:25.985Z,439
2023-07-25T17:45:23.192Z,433
2023-07-25T17:47:20.560Z,430
2023-07-25T17:49:19.886Z,448
2023-07-25T17:51:17.795Z,432
2023-07-25T17:53:14.755Z,432
2023-07-25T17:55:11.861Z,428
2023-07-25T17:57:10.776Z,428
2023-07-25T17:59:07.743Z,420
2023-07-25T18:01:05.102Z,415
2023-07-25T18:03:03.115Z,411
2023-07-25T18:05:00.383Z,405
2023-07-25T18:06:57.534Z,399
2023-07-25T18:08:54.487Z,396
2023-07-25T18:10:51.577Z,400
2023-07-25T18:12:48.736Z,393
2023-07-25T18:14:45.894Z,386
2023-07-25T18:16:43.009Z,391
2023-07-25T18:18:40.099Z,392
2023-07-25T18:20:37.242Z,389
2023-07-25T18:22:38.893Z,382
2023-07-25T18:24:36.015Z,377
2023-07-25T18:26:33.064Z,375
2023-07-25T18:28:30.095Z,369
2023-07-25T18:30:27.245Z,364
2023-07-25T18:32:24.520Z,355
2023-07-25T18:34:21.569Z,346
2023-07-25T18:36:18.560Z,353
2023-07-25T18:38:15.765Z,347
2023-07-25T18:40:12.906Z,340
2023-07-25T18:42:09.838Z,337
2023-07-25T18:44:07.035Z,328
2023-07-25T18:46:04.326Z,323
2023-07-25T18:48:02.166Z,320
2023-07-25T18:49:59.252Z,316
2023-07-25T18:51:56.120Z,307
2023-07-25T18:53:53.032Z,299
2023-07-25T18:55:49.895Z,290
2023-07-25T18:57:46.882Z,287
2023-07-25T18:59:46.617Z,278
2023-07-25T19:01:43.629Z,271
2023-07-25T19:03:40.818Z,263
2023-07-25T19:05:37.748Z,256
2023-07-25T19:07:34.715Z,245
2023-07-25T19:09:31.740Z,238
2023-07-25T19:11:28.779Z,230
2023-07-25T19:13:25.924Z,215
2023-07-25T19:15:23.022Z,212
2023-07-25T19:17:20.018Z,201
2023-07-25T19:19:17.417Z,194
2023-07-25T19:21:14.464Z,185
2023-07-25T19:23:24.076Z,176
2023-07-25T19:25:22.832Z,163
2023-07-25T19:27:19.824Z,153
2023-07-25T19:29:16.828Z,145
2023-07-25T19:31:13.736Z,139
2023-07-25T19:33:10.964Z,129
2023-07-25T19:35:10.222Z,121
2023-07-25T19:37:09.340Z,115
2023-07-25T19:39:06.324Z,105
2023-07-25T19:41:03.278Z,101
2023-07-25T19:43:00.985Z,88
2023-07-25T19:44:58.081Z,87
2023-07-25T19:46:55.003Z,82
2023-07-25T19:48:52.329Z,75
2023-07-25T19:50:49.362Z,72
2023-07-25T19:52:46.239Z,64
2023-07-25T19:54:43.274Z,58
2023-07-25T19:56:40.241Z,57
2023-07-25T19:58:37.081Z,56
2023-07-25T20:00:35.351Z,47
2023-07-25T20:02:32.675Z,54
2023-07-25T20:04:30.033Z,42
2023-07-25T20:06:27.047Z,46
2023-07-25T20:08:23.990Z,42
2023-07-25T20:10:21.042Z,41
2023-07-25T20:12:18.025Z,36
2023-07-25T20:14:15.105Z,42
2023-07-25T20:16:12.137Z,36
2023-07-25T20:18:09.331Z,37
2023-07-25T20:20:06.378Z,36
2023-07-25T20:22:03.511Z,43
2023-07-25T20:24:00.492Z,35
2023-07-25T20:25:57.747Z,30
2023-07-25T20:27:54.754Z,32
2023-07-25T20:29:51.794Z,33
2023-07-25T20:31:48.821Z,35
2023-07-25T20:33:45.967Z,36
2023-07-25T20:35:42.949Z,35
2023-07-25T20:37:40.107Z,28
2023-07-25T20:39:37.122Z,34
2023-07-25T20:41:38.751Z,25
2023-07-25T20:43:35.954Z,35
2023-07-25T20:45:33.006Z,37
2023-07-25T20:47:29.910Z,29
2023-07-25T20:49:27.286Z,35
2023-07-25T20:51:24.315Z,33
2023-07-25T20:53:21.425Z,33
2023-07-25T20:55:18.520Z,32
2023-07-25T20:57:15.456Z,32
2023-07-25T20:59:12.347Z,36
2023-07-25T21:01:09.394Z,38
2023-07-25T21:03:06.790Z,40
2023-07-25T21:05:04.024Z,32
2023-07-25T21:07:00.941Z,34
2023-07-25T21:08:58.098Z,34
2023-07-25T21:10:55.125Z,34
2023-07-25T21:12:52.224Z,34
2023-07-25T21:14:49.175Z,33
2023-07-25T21:16:46.275Z,35
2023-07-25T21:18:43.359Z,33
2023-07-25T21:20:40.343Z,36
2023-07-25T21:22:37.365Z,38
2023-07-25T21:24:34.450Z,35
2023-07-25T21:26:31.816Z,32
2023-07-25T21:28:29.131Z,34
2023-07-25T21:30:26.212Z,31
2023-07-25T21:32:23.396Z,29
2023-07-25T21:34:20.552Z,35
2023-07-25T21:36:17.483Z,31
2023-07-25T21:38:14.516Z,31
2023-07-25T21:40:11.528Z,31
2023-07-25T21:42:08.592Z,31
2023-07-25T21:44:05.654Z,34
2023-07-25T21:46:02.798Z,36
2023-07-25T21:48:00.583Z,32
2023-07-25T21:49:57.690Z,36
2023-07-25T21:51:54.691Z,40
2023-07-25T21:53:51.655Z,41
2023-07-25T21:55:48.832Z,31
2023-07-25T21:57:45.872Z,32
2023-07-25T21:59:42.863Z,37
2023-07-25T22:01:39.869Z,33
2023-07-25T22:03:36.927Z,33
2023-07-25T22:05:34.196Z,35
2023-07-25T22:07:31.204Z,44
2023-07-25T22:09:28.361Z,31
2023-07-25T22:11:25.459Z,35
2023-07-25T22:13:23.044Z,50
2023-07-25T22:15:20.079Z,42
2023-07-25T22:17:17.184Z,32
2023-07-25T22:19:14.331Z,35
2023-07-25T22:21:11.310Z,36
2023-07-25T22:23:08.308Z,35
2023-07-25T22:25:05.376Z,32
2023-07-25T22:27:02.441Z,35
2023-07-25T22:28:59.598Z,37
2023-07-25T22:30:56.598Z,30
2023-07-25T22:32:53.745Z,34
2023-07-25T22:34:50.675Z,32
2023-07-25T22:36:47.561Z,34
2023-07-25T22:38:44.559Z,34
2023-07-25T22:40:41.624Z,34
2023-07-25T22:42:38.726Z,35
2023-07-25T22:44:35.661Z,34
2023-07-25T22:46:32.959Z,41
2023-07-25T22:48:30.137Z,34
2023-07-25T22:50:27.174Z,43
2023-07-25T22:52:24.277Z,37
2023-07-25T22:54:21.326Z,34
2023-07-25T22:56:18.333Z,33
2023-07-25T22:58:15.507Z,34
2023-07-25T23:00:12.535Z,39
2023-07-25T23:02:09.638Z,35
2023-07-25T23:04:07.145Z,40
2023-07-25T23:06:04.092Z,36
2023-07-25T23:08:01.647Z,32
2023-07-25T23:09:58.513Z,34
2023-07-25T23:11:55.585Z,35
2023-07-25T23:13:52.686Z,40
2023-07-25T23:15:49.691Z,37
2023-07-25T23:17:47.018Z,37
2023-07-25T23:19:44.167Z,33
2023-07-25T23:21:41.317Z,34
2023-07-25T23:23:38.301Z,35
2023-07-25T23:25:35.270Z,35
2023-07-25T23:27:32.108Z,35
2023-07-25T23:29:29.307Z,36
2023-07-25T23:31:26.302Z,34
2023-07-25T23:33:23.483Z,38
2023-07-25T23:35:20.769Z,35
2023-07-25T23:37:17.761Z,34
2023-07-25T23:39:14.710Z,34
2023-07-25T23:41:11.804Z,33
2023-07-25T23:43:08.934Z,35
2023-07-25T23:45:06.041Z,35
2023-07-25T23:47:03.141Z,33
2023-07-25T23:49:00.395Z,38
2023-07-25T23:50:57.357Z,34
2023-07-25T23:52:54.471Z,32
2023-07-25T23:54:51.466Z,31
2023-07-25T23:56:48.443Z,36
2023-07-25T23:58:45.434Z,36
